createdAt,value
2018-09-19T00:00:19.756Z,0
2018-09-19T00:01:29.725Z,0
2018-09-19T00:02:39.425Z,0
2018-09-19T00:03:49.130Z,0
2018-09-19T00:04:59.080Z,0
2018-09-19T00:06:09.058Z,0
2018-09-19T00:07:19.012Z,0
2018-09-19T00:08:28.726Z,0
2018-09-19T00:09:38.420Z,0
2018-09-19T00:10:48.428Z,0
2018-09-19T00:11:58.422Z,0
2018-09-19T00:13:08.417Z,0
2018-09-19T00:14:18.422Z,0
2018-09-19T00:15:28.388Z,0
2018-09-19T00:16:38.340Z,0
2018-09-19T00:17:48.313Z,0
2018-09-19T00:18:58.325Z,0
2018-09-19T00:20:08.545Z,0
2018-09-19T00:21:18.619Z,0
2018-09-19T00:22:28.335Z,0
2018-09-19T00:23:38.034Z,0
2018-09-19T00:24:48.007Z,0
2018-09-19T00:25:57.777Z,0
2018-09-19T00:27:07.811Z,0
2018-09-19T00:28:17.781Z,0
2018-09-19T00:29:27.744Z,0
2018-09-19T00:30:37.707Z,0
2018-09-19T00:31:47.660Z,0
2018-09-19T00:32:57.412Z,0
2018-09-19T00:34:07.384Z,0
2018-09-19T00:35:16.857Z,0
2018-09-19T00:36:26.568Z,0
2018-09-19T00:37:36.258Z,0
2018-09-19T00:38:46.241Z,0
2018-09-19T00:39:55.936Z,0
2018-09-19T00:41:05.898Z,0
2018-09-19T00:42:15.913Z,0
2018-09-19T00:43:25.876Z,0
2018-09-19T00:44:35.910Z,0
2018-09-19T00:45:45.863Z,0
2018-09-19T00:46:55.823Z,0
2018-09-19T00:48:05.783Z,0
2018-09-19T00:49:15.498Z,0
2018-09-19T00:50:25.458Z,0
2018-09-19T00:51:35.417Z,0
2018-09-19T00:52:45.381Z,0
2018-09-19T00:53:55.346Z,0
2018-09-19T00:55:05.319Z,0
2018-09-19T00:56:15.330Z,0
2018-09-19T00:57:25.030Z,0
2018-09-19T00:58:35.019Z,0
2018-09-19T00:59:44.978Z,0
2018-09-19T01:00:54.932Z,0
2018-09-19T01:02:04.901Z,0
2018-09-19T01:03:14.880Z,0
2018-09-19T01:04:24.577Z,0
2018-09-19T01:05:34.571Z,0
2018-09-19T01:06:44.533Z,0
2018-09-19T01:07:54.520Z,0
2018-09-19T01:09:04.484Z,0
2018-09-19T01:10:14.180Z,0
2018-09-19T01:11:24.156Z,0
2018-09-19T01:12:34.104Z,0
2018-09-19T01:13:43.543Z,0
2018-09-19T01:14:52.984Z,0
2018-09-19T01:16:02.992Z,0
2018-09-19T01:17:12.944Z,0
2018-09-19T01:18:22.899Z,0
2018-09-19T01:19:32.874Z,0
2018-09-19T01:20:42.836Z,0
2018-09-19T01:21:52.801Z,0
2018-09-19T01:23:02.502Z,0
2018-09-19T01:24:12.454Z,0
2018-09-19T01:25:22.431Z,0
2018-09-19T01:26:32.408Z,0
2018-09-19T01:27:42.097Z,0
2018-09-19T01:28:52.068Z,0
2018-09-19T01:30:02.012Z,0
2018-09-19T01:31:11.963Z,0
2018-09-19T01:32:21.663Z,0
2018-09-19T01:33:31.096Z,0
2018-09-19T01:34:41.249Z,0
2018-09-19T01:35:50.952Z,0
2018-09-19T01:37:00.643Z,0
2018-09-19T01:38:10.349Z,0
2018-09-19T01:39:20.343Z,0
2018-09-19T01:40:29.803Z,0
2018-09-19T01:41:39.258Z,0
2018-09-19T01:42:49.200Z,0
2018-09-19T01:43:59.158Z,0
2018-09-19T01:45:08.857Z,0
2018-09-19T01:46:18.809Z,0
2018-09-19T01:47:28.761Z,0
2018-09-19T01:48:38.486Z,0
2018-09-19T01:49:48.446Z,0
2018-09-19T01:50:58.444Z,0
2018-09-19T01:52:08.407Z,0
2018-09-19T01:53:18.150Z,0
2018-09-19T01:54:28.095Z,0
2018-09-19T01:55:38.099Z,0
2018-09-19T01:56:48.066Z,0
2018-09-19T01:57:57.812Z,0
2018-09-19T01:59:07.767Z,0
2018-09-19T02:00:17.536Z,0
2018-09-19T02:01:26.989Z,0
2018-09-19T02:02:36.944Z,0
2018-09-19T02:03:46.905Z,0
2018-09-19T02:04:56.854Z,0
2018-09-19T02:06:06.824Z,0
2018-09-19T02:07:16.823Z,0
2018-09-19T02:08:26.785Z,0
2018-09-19T02:09:36.497Z,0
2018-09-19T02:10:45.951Z,0
2018-09-19T02:11:56.007Z,0
2018-09-19T02:13:05.701Z,0
2018-09-19T02:14:15.673Z,0
2018-09-19T02:15:25.627Z,0
2018-09-19T02:16:35.331Z,0
2018-09-19T02:17:45.361Z,0
2018-09-19T02:18:55.104Z,0
2018-09-19T02:20:04.807Z,0
2018-09-19T02:21:14.502Z,0
2018-09-19T02:22:24.220Z,0
2018-09-19T02:23:33.929Z,0
2018-09-19T02:24:43.881Z,0
2018-09-19T02:25:53.848Z,0
2018-09-19T02:27:03.812Z,0
2018-09-19T02:28:13.778Z,0
2018-09-19T02:29:23.485Z,0
2018-09-19T02:30:33.477Z,0
2018-09-19T02:31:43.452Z,0
2018-09-19T02:32:53.150Z,0
2018-09-19T02:34:02.848Z,0
2018-09-19T02:35:12.812Z,0
2018-09-19T02:36:22.807Z,0
2018-09-19T02:37:32.512Z,0
2018-09-19T02:38:42.305Z,0
2018-09-19T02:39:51.996Z,0
2018-09-19T02:41:01.945Z,0
2018-09-19T02:42:11.942Z,0
2018-09-19T02:43:21.656Z,0
2018-09-19T02:44:31.623Z,0
2018-09-19T02:45:41.593Z,0
2018-09-19T02:46:51.552Z,0
2018-09-19T02:48:01.270Z,0
2018-09-19T02:49:10.977Z,0
2018-09-19T02:50:20.975Z,0
2018-09-19T02:51:30.680Z,0
2018-09-19T02:52:40.397Z,0
2018-09-19T02:53:50.188Z,0
2018-09-19T02:54:59.925Z,0
2018-09-19T02:56:09.919Z,0
2018-09-19T02:57:19.882Z,0
2018-09-19T02:58:29.853Z,0
2018-09-19T02:59:39.810Z,0
2018-09-19T03:00:49.775Z,0
2018-09-19T03:01:59.730Z,0
2018-09-19T03:03:09.736Z,0
2018-09-19T03:04:19.696Z,0
2018-09-19T03:05:29.682Z,0
2018-09-19T03:06:39.679Z,0
2018-09-19T03:07:49.640Z,0
2018-09-19T03:08:59.593Z,0
2018-09-19T03:10:09.579Z,0
2018-09-19T03:11:19.551Z,0
2018-09-19T03:12:28.743Z,0
2018-09-19T03:13:38.723Z,0
2018-09-19T03:14:48.428Z,0
2018-09-19T03:15:58.397Z,0
2018-09-19T03:17:08.756Z,0
2018-09-19T03:18:18.406Z,0
2018-09-19T03:19:28.358Z,0
2018-09-19T03:20:38.388Z,0
2018-09-19T03:21:48.396Z,0
2018-09-19T03:22:58.351Z,0
2018-09-19T03:24:08.322Z,0
2018-09-19T03:25:18.282Z,0
2018-09-19T03:26:27.977Z,0
2018-09-19T03:27:37.926Z,0
2018-09-19T03:28:47.636Z,0
2018-09-19T03:29:56.823Z,0
2018-09-19T03:31:06.776Z,0
2018-09-19T03:32:16.753Z,0
2018-09-19T03:33:26.755Z,0
2018-09-19T03:34:36.496Z,0
2018-09-19T03:35:46.488Z,0
2018-09-19T03:36:56.458Z,0
2018-09-19T03:38:06.163Z,0
2018-09-19T03:39:16.129Z,0
2018-09-19T03:40:25.831Z,0
2018-09-19T03:41:35.805Z,0
2018-09-19T03:42:45.778Z,0
2018-09-19T03:43:55.942Z,0
2018-09-19T03:45:05.659Z,0
2018-09-19T03:46:15.639Z,0
2018-09-19T03:47:25.595Z,0
2018-09-19T03:48:35.284Z,0
2018-09-19T03:49:45.241Z,0
2018-09-19T03:50:54.958Z,0
2018-09-19T03:52:04.725Z,0
2018-09-19T03:53:14.434Z,0
2018-09-19T03:54:24.391Z,0
2018-09-19T03:55:34.241Z,0
2018-09-19T03:56:44.220Z,0
2018-09-19T03:57:54.202Z,0
2018-09-19T03:59:04.179Z,0
2018-09-19T04:00:14.148Z,0
2018-09-19T04:01:23.861Z,0
2018-09-19T04:02:33.565Z,0
2018-09-19T04:03:43.505Z,0
2018-09-19T04:04:53.476Z,0
2018-09-19T04:06:03.194Z,0
2018-09-19T04:07:12.895Z,0
2018-09-19T04:08:22.885Z,0
2018-09-19T04:09:32.590Z,0
2018-09-19T04:10:42.566Z,0
2018-09-19T04:11:52.797Z,4
2018-09-19T04:13:02.774Z,4
2018-09-19T04:14:12.751Z,0
2018-09-19T04:15:22.465Z,4
2018-09-19T04:16:32.433Z,4
2018-09-19T04:17:42.244Z,4
2018-09-19T04:18:51.978Z,4
2018-09-19T04:20:01.435Z,8
2018-09-19T04:21:11.425Z,8
2018-09-19T04:22:21.123Z,12
2018-09-19T04:23:31.108Z,12
2018-09-19T04:24:41.070Z,16
2018-09-19T04:25:51.038Z,20
2018-09-19T04:27:00.745Z,24
2018-09-19T04:28:10.715Z,28
2018-09-19T04:29:20.742Z,40
2018-09-19T04:30:30.704Z,48
2018-09-19T04:31:40.421Z,56
2018-09-19T04:32:50.409Z,72
2018-09-19T04:34:00.137Z,84
2018-09-19T04:35:10.116Z,104
2018-09-19T04:36:20.199Z,124
2018-09-19T04:37:29.908Z,144
2018-09-19T04:38:39.896Z,172
2018-09-19T04:39:49.850Z,204
2018-09-19T04:40:59.545Z,236
2018-09-19T04:42:09.509Z,272
2018-09-19T04:43:19.507Z,312
2018-09-19T04:44:29.507Z,348
2018-09-19T04:45:39.469Z,388
2018-09-19T04:46:49.170Z,432
2018-09-19T04:47:59.163Z,476
2018-09-19T04:49:09.167Z,524
2018-09-19T04:50:19.161Z,572
2018-09-19T04:51:29.156Z,624
2018-09-19T04:52:39.309Z,684
2018-09-19T04:53:49.062Z,748
2018-09-19T04:54:59.025Z,820
2018-09-19T04:56:09.006Z,904
2018-09-19T04:57:18.972Z,996
2018-09-19T04:58:28.936Z,1100
2018-09-19T04:59:38.643Z,1204
2018-09-19T05:00:48.609Z,1312
2018-09-19T05:01:58.653Z,1400
2018-09-19T05:03:08.677Z,1496
2018-09-19T05:04:18.656Z,1600
2018-09-19T05:05:28.658Z,1708
2018-09-19T05:06:38.362Z,1812
2018-09-19T05:07:48.114Z,1912
2018-09-19T05:08:57.881Z,2004
2018-09-19T05:10:07.873Z,2096
2018-09-19T05:11:18.041Z,2168
2018-09-19T05:12:28.072Z,2236
2018-09-19T05:13:38.047Z,2316
2018-09-19T05:14:48.049Z,2396
2018-09-19T05:15:58.019Z,2476
2018-09-19T05:17:07.981Z,2552
2018-09-19T05:18:17.712Z,2632
2018-09-19T05:19:27.717Z,2724
2018-09-19T05:20:37.714Z,2816
2018-09-19T05:21:47.159Z,2920
2018-09-19T05:22:57.140Z,3016
2018-09-19T05:24:07.097Z,3120
2018-09-19T05:25:16.840Z,3224
2018-09-19T05:26:26.569Z,3336
2018-09-19T05:27:36.580Z,3452
2018-09-19T05:28:46.291Z,3564
2018-09-19T05:29:56.251Z,3680
2018-09-19T05:31:06.212Z,3784
2018-09-19T05:32:16.177Z,3892
2018-09-19T05:33:25.891Z,3996
2018-09-19T05:34:35.595Z,4092
2018-09-19T05:35:45.316Z,4192
2018-09-19T05:36:55.027Z,4288
2018-09-19T05:38:05.001Z,4384
2018-09-19T05:39:14.949Z,4476
2018-09-19T05:40:24.679Z,4552
2018-09-19T05:41:34.663Z,4656
2018-09-19T05:42:44.639Z,4800
2018-09-19T05:43:54.347Z,4984
2018-09-19T05:45:04.316Z,5108
2018-09-19T05:46:14.007Z,5292
2018-09-19T05:47:24.035Z,5496
2018-09-19T05:48:34.029Z,5668
2018-09-19T05:49:44.011Z,5816
2018-09-19T05:50:53.971Z,5920
2018-09-19T05:52:03.931Z,6040
2018-09-19T05:53:13.894Z,6204
2018-09-19T05:54:23.947Z,6424
2018-09-19T05:55:34.030Z,6700
2018-09-19T05:56:43.733Z,7000
2018-09-19T05:57:53.979Z,7312
2018-09-19T05:59:03.953Z,7588
2018-09-19T06:00:13.667Z,7792
2018-09-19T06:01:23.113Z,7916
2018-09-19T06:02:33.195Z,7952
2018-09-19T06:03:42.928Z,7896
2018-09-19T06:04:52.749Z,7820
2018-09-19T06:06:02.677Z,7700
2018-09-19T06:07:12.683Z,7776
2018-09-19T06:08:22.412Z,7780
2018-09-19T06:09:32.393Z,7752
2018-09-19T06:10:42.370Z,7728
2018-09-19T06:11:52.326Z,7736
2018-09-19T06:13:02.423Z,7768
2018-09-19T06:14:12.468Z,7904
2018-09-19T06:15:22.255Z,8140
2018-09-19T06:16:32.209Z,8384
2018-09-19T06:17:42.268Z,8532
2018-09-19T06:18:51.995Z,8648
2018-09-19T06:20:01.974Z,8724
2018-09-19T06:21:11.688Z,8672
2018-09-19T06:22:21.638Z,8208
2018-09-19T06:23:31.623Z,7768
2018-09-19T06:24:41.607Z,7620
2018-09-19T06:25:51.569Z,7552
2018-09-19T06:27:01.855Z,7512
2018-09-19T06:28:11.959Z,7496
2018-09-19T06:29:21.907Z,7388
2018-09-19T06:30:31.873Z,7592
2018-09-19T06:31:41.847Z,7872
2018-09-19T06:32:52.073Z,7780
2018-09-19T06:34:01.847Z,8048
2018-09-19T06:35:11.558Z,8432
2018-09-19T06:36:21.522Z,8628
2018-09-19T06:37:31.475Z,8820
2018-09-19T06:38:41.468Z,9256
2018-09-19T06:39:51.537Z,9720
2018-09-19T06:41:02.460Z,10172
2018-09-19T06:42:13.280Z,10520
2018-09-19T06:43:23.381Z,11160
2018-09-19T06:44:33.350Z,11476
2018-09-19T06:45:43.860Z,11768
2018-09-19T06:46:54.278Z,11884
2018-09-19T06:48:04.550Z,11800
2018-09-19T06:49:14.024Z,11552
2018-09-19T06:50:24.018Z,11044
2018-09-19T06:51:34.030Z,10508
2018-09-19T06:52:44.004Z,9952
2018-09-19T06:53:53.974Z,9416
2018-09-19T06:55:03.944Z,9488
2018-09-19T06:56:13.941Z,9708
2018-09-19T06:57:23.408Z,9532
2018-09-19T06:58:33.394Z,9556
2018-09-19T06:59:43.259Z,9684
2018-09-19T07:00:53.439Z,9664
2018-09-19T07:02:03.220Z,9952
2018-09-19T07:03:13.187Z,10204
2018-09-19T07:04:22.952Z,10304
2018-09-19T07:05:32.948Z,10284
2018-09-19T07:06:42.921Z,10000
2018-09-19T07:07:52.910Z,10148
2018-09-19T07:09:02.893Z,10392
2018-09-19T07:10:12.871Z,11016
2018-09-19T07:11:22.887Z,10968
2018-09-19T07:12:32.618Z,11932
2018-09-19T07:13:42.797Z,12696
2018-09-19T07:14:52.790Z,12604
2018-09-19T07:16:02.887Z,12468
2018-09-19T07:17:12.836Z,13464
2018-09-19T07:18:22.843Z,13836
2018-09-19T07:19:32.875Z,14092
2018-09-19T07:20:42.322Z,14436
2018-09-19T07:21:52.319Z,14900
2018-09-19T07:23:02.551Z,15440
2018-09-19T07:24:12.555Z,16176
2018-09-19T07:25:23.101Z,16960
2018-09-19T07:26:33.376Z,18000
2018-09-19T07:27:43.476Z,19360
2018-09-19T07:28:53.461Z,20320
2018-09-19T07:30:03.439Z,21088
2018-09-19T07:31:13.900Z,21632
2018-09-19T07:32:24.118Z,21792
2018-09-19T07:33:34.078Z,22080
2018-09-19T07:34:43.792Z,22336
2018-09-19T07:35:53.756Z,22304
2018-09-19T07:37:03.191Z,22016
2018-09-19T07:38:13.181Z,21536
2018-09-19T07:39:23.227Z,20832
2018-09-19T07:40:33.348Z,20512
2018-09-19T07:41:43.340Z,20608
2018-09-19T07:42:53.053Z,21088
2018-09-19T07:44:03.021Z,21184
2018-09-19T07:45:12.990Z,21280
2018-09-19T07:46:23.082Z,20864
2018-09-19T07:47:32.832Z,20672
2018-09-19T07:48:42.547Z,20736
2018-09-19T07:49:52.012Z,20960
2018-09-19T07:51:01.733Z,20640
2018-09-19T07:52:11.712Z,20352
2018-09-19T07:53:21.427Z,19968
2018-09-19T07:54:31.653Z,19712
2018-09-19T07:55:41.819Z,19296
2018-09-19T07:56:51.790Z,19040
2018-09-19T07:58:01.319Z,18784
2018-09-19T07:59:11.291Z,18656
2018-09-19T08:00:20.749Z,18560
2018-09-19T08:01:30.777Z,18336
2018-09-19T08:02:40.764Z,18208
2018-09-19T08:03:50.810Z,18176
2018-09-19T08:05:00.275Z,18240
2018-09-19T08:06:10.242Z,20192
2018-09-19T08:07:20.239Z,20896
2018-09-19T08:08:30.242Z,21184
2018-09-19T08:09:39.679Z,21472
2018-09-19T08:10:49.666Z,20256
2018-09-19T08:11:59.398Z,20256
2018-09-19T08:13:09.394Z,21728
2018-09-19T08:14:19.410Z,20864
2018-09-19T08:15:28.864Z,21440
2018-09-19T08:16:38.913Z,22464
2018-09-19T08:17:48.930Z,24960
2018-09-19T08:18:58.920Z,26336
2018-09-19T08:20:09.149Z,24416
2018-09-19T08:21:19.173Z,27200
2018-09-19T08:22:28.976Z,27968
2018-09-19T08:23:38.763Z,25088
2018-09-19T08:24:48.755Z,25248
2018-09-19T08:25:58.457Z,25344
2018-09-19T08:27:08.150Z,28704
2018-09-19T08:28:18.133Z,25952
2018-09-19T08:29:28.126Z,35744
2018-09-19T08:30:38.117Z,34464
2018-09-19T08:31:48.102Z,36928
2018-09-19T08:32:57.816Z,39360
2018-09-19T08:34:07.830Z,39360
2018-09-19T08:35:17.814Z,36000
2018-09-19T08:36:27.829Z,30912
2018-09-19T08:37:37.800Z,29664
2018-09-19T08:38:47.775Z,33376
2018-09-19T08:39:57.770Z,37728
2018-09-19T08:41:07.757Z,39456
2018-09-19T08:42:17.482Z,39008
2018-09-19T08:43:27.481Z,36576
2018-09-19T08:44:37.485Z,32992
2018-09-19T08:45:47.485Z,35328
2018-09-19T08:46:57.237Z,39872
2018-09-19T08:48:06.995Z,38720
2018-09-19T08:49:16.993Z,39168
2018-09-19T08:50:26.832Z,40800
2018-09-19T08:51:36.915Z,44992
2018-09-19T08:52:46.902Z,45152
2018-09-19T08:53:56.963Z,46272
2018-09-19T08:55:06.977Z,46688
2018-09-19T08:56:16.791Z,46272
2018-09-19T08:57:26.812Z,47264
2018-09-19T08:58:36.793Z,47936
2018-09-19T08:59:46.797Z,48736
2018-09-19T09:00:56.798Z,49024
2018-09-19T09:02:06.523Z,50368
2018-09-19T09:03:16.233Z,50784
2018-09-19T09:04:26.197Z,50752
2018-09-19T09:05:36.060Z,51584
2018-09-19T09:06:45.552Z,51872
2018-09-19T09:07:55.531Z,51936
2018-09-19T09:09:05.524Z,52384
2018-09-19T09:10:15.720Z,52384
2018-09-19T09:11:25.179Z,51808
2018-09-19T09:12:35.023Z,53216
2018-09-19T09:13:45.142Z,56512
2018-09-19T09:14:55.121Z,55488
2018-09-19T09:16:05.147Z,54784
2018-09-19T09:17:15.129Z,57024
2018-09-19T09:18:25.110Z,56512
2018-09-19T09:19:34.816Z,58144
2018-09-19T09:20:44.797Z,60000
2018-09-19T09:21:54.802Z,60960
2018-09-19T09:23:04.769Z,61312
2018-09-19T09:24:14.812Z,61440
2018-09-19T09:25:24.269Z,60608
2018-09-19T09:26:34.245Z,62048
2018-09-19T09:27:43.704Z,62944
2018-09-19T09:28:53.674Z,63424
2018-09-19T09:30:03.652Z,65504
2018-09-19T09:31:13.663Z,65632
2018-09-19T09:32:23.528Z,64928
2018-09-19T09:33:33.573Z,66048
2018-09-19T09:34:43.718Z,67616
2018-09-19T09:35:53.461Z,68480
2018-09-19T09:37:03.328Z,66848
2018-09-19T09:38:13.302Z,68128
2018-09-19T09:39:23.329Z,71712
2018-09-19T09:40:33.427Z,70112
2018-09-19T09:41:43.655Z,69696
2018-09-19T09:42:53.197Z,71872
2018-09-19T09:44:02.936Z,73632
2018-09-19T09:45:12.671Z,74400
2018-09-19T09:46:22.692Z,76192
2018-09-19T09:47:32.674Z,75392
2018-09-19T09:48:42.683Z,75136
2018-09-19T09:49:52.139Z,73184
2018-09-19T09:51:01.858Z,74272
2018-09-19T09:52:11.579Z,75616
2018-09-19T09:53:21.722Z,79456
2018-09-19T09:54:31.857Z,76096
2018-09-19T09:55:41.821Z,77568
2018-09-19T09:56:51.810Z,78272
2018-09-19T09:58:01.795Z,80096
2018-09-19T09:59:11.244Z,79968
2018-09-19T10:00:20.990Z,83168
2018-09-19T10:01:30.961Z,85152
2018-09-19T10:02:40.968Z,81920
2018-09-19T10:03:50.949Z,79232
2018-09-19T10:05:00.945Z,79616
2018-09-19T10:06:10.909Z,83008
2018-09-19T10:07:20.688Z,79904
2018-09-19T10:08:30.427Z,82592
2018-09-19T10:09:40.421Z,81824
2018-09-19T10:10:50.503Z,85024
2018-09-19T10:12:00.484Z,87936
2018-09-19T10:13:10.490Z,87072
2018-09-19T10:14:20.463Z,85472
2018-09-19T10:15:30.164Z,87232
2018-09-19T10:16:39.975Z,90176
2018-09-19T10:17:49.700Z,91040
2018-09-19T10:18:59.408Z,88576
2018-09-19T10:20:09.381Z,88672
2018-09-19T10:21:19.353Z,91136
2018-09-19T10:22:29.311Z,91552
2018-09-19T10:23:39.318Z,88416
2018-09-19T10:24:49.292Z,91456
2018-09-19T10:25:59.277Z,96544
2018-09-19T10:27:09.235Z,89248
2018-09-19T10:28:19.213Z,96096
2018-09-19T10:29:29.323Z,100352
2018-09-19T10:30:39.352Z,97984
2018-09-19T10:31:49.322Z,94976
2018-09-19T10:32:59.310Z,93056
2018-09-19T10:34:09.302Z,90624
2018-09-19T10:35:19.075Z,92256
2018-09-19T10:36:29.168Z,87328
2018-09-19T10:37:39.167Z,86240
2018-09-19T10:38:49.147Z,96448
2018-09-19T10:39:58.852Z,94432
2018-09-19T10:41:08.856Z,101120
2018-09-19T10:42:18.583Z,98912
2018-09-19T10:43:28.759Z,103200
2018-09-19T10:44:38.517Z,103424
2018-09-19T10:45:48.482Z,102400
2018-09-19T10:46:58.225Z,102176
2018-09-19T10:48:07.669Z,106112
2018-09-19T10:49:17.695Z,99936
2018-09-19T10:50:27.764Z,99840
2018-09-19T10:51:37.762Z,94336
2018-09-19T10:52:47.736Z,95904
2018-09-19T10:53:57.766Z,95424
2018-09-19T10:55:07.727Z,99264
2018-09-19T10:56:17.724Z,97088
2018-09-19T10:57:27.958Z,97856
2018-09-19T10:58:37.678Z,96704
2018-09-19T10:59:47.634Z,106720
2018-09-19T11:00:57.601Z,105088
2018-09-19T11:02:07.568Z,101472
2018-09-19T11:03:17.542Z,100416
2018-09-19T11:04:27.516Z,101024
2018-09-19T11:05:37.232Z,103520
2018-09-19T11:06:46.948Z,102208
2018-09-19T11:07:56.928Z,104160
2018-09-19T11:09:06.940Z,112672
2018-09-19T11:10:16.652Z,107872
2018-09-19T11:11:26.639Z,110176
2018-09-19T11:12:36.133Z,108480
2018-09-19T11:13:45.905Z,107424
2018-09-19T11:14:55.884Z,104640
2018-09-19T11:16:05.856Z,106720
2018-09-19T11:17:15.784Z,105760
2018-09-19T11:18:25.527Z,106848
2018-09-19T11:19:35.492Z,107904
2018-09-19T11:20:45.215Z,103744
2018-09-19T11:21:54.938Z,96832
2018-09-19T11:23:04.966Z,100704
2018-09-19T11:24:14.946Z,99616
2018-09-19T11:25:24.936Z,107456
2018-09-19T11:26:35.187Z,115584
2018-09-19T11:27:44.973Z,113792
2018-09-19T11:28:54.940Z,114432
2018-09-19T11:30:04.646Z,111168
2018-09-19T11:31:14.617Z,103040
2018-09-19T11:32:24.616Z,110912
2018-09-19T11:33:34.741Z,119232
2018-09-19T11:34:44.767Z,107776
2018-09-19T11:35:54.756Z,109184
2018-09-19T11:37:04.718Z,112448
2018-09-19T11:38:14.453Z,105632
2018-09-19T11:39:24.412Z,103616
2018-09-19T11:40:34.386Z,105984
2018-09-19T11:41:44.377Z,111616
2018-09-19T11:42:54.373Z,110752
2018-09-19T11:44:04.490Z,113664
2018-09-19T11:45:14.205Z,120256
2018-09-19T11:46:23.920Z,107232
2018-09-19T11:47:33.890Z,109856
2018-09-19T11:48:44.119Z,114176
2018-09-19T11:49:54.246Z,112032
2018-09-19T11:51:03.964Z,111424
2018-09-19T11:52:13.931Z,117024
2018-09-19T11:53:23.899Z,109920
2018-09-19T11:54:33.849Z,110272
2018-09-19T11:55:43.563Z,113440
2018-09-19T11:56:53.266Z,109664
2018-09-19T11:58:02.826Z,110112
2018-09-19T11:59:12.971Z,113120
2018-09-19T12:00:22.937Z,112768
2018-09-19T12:01:32.659Z,111200
2018-09-19T12:02:42.842Z,105408
2018-09-19T12:03:52.551Z,109600
2018-09-19T12:05:02.512Z,111936
2018-09-19T12:06:12.477Z,105664
2018-09-19T12:07:22.400Z,106976
2018-09-19T12:08:32.223Z,107840
2018-09-19T12:09:42.185Z,111488
2018-09-19T12:10:52.159Z,103840
2018-09-19T12:12:02.133Z,105440
2018-09-19T12:13:11.846Z,96352
2018-09-19T12:14:21.812Z,106304
2018-09-19T12:15:31.531Z,105952
2018-09-19T12:16:41.502Z,107776
2018-09-19T12:17:51.490Z,104064
2018-09-19T12:19:01.436Z,94528
2018-09-19T12:20:11.176Z,102432
2018-09-19T12:21:21.152Z,100800
2018-09-19T12:22:30.641Z,103712
2018-09-19T12:23:40.341Z,112736
2018-09-19T12:24:50.314Z,120000
2018-09-19T12:26:00.275Z,118368
2018-09-19T12:27:10.247Z,113024
2018-09-19T12:28:19.971Z,116800
2018-09-19T12:29:29.495Z,108704
2018-09-19T12:30:39.468Z,113504
2018-09-19T12:31:49.428Z,111104
2018-09-19T12:32:59.140Z,109952
2018-09-19T12:34:09.124Z,105664
2018-09-19T12:35:18.587Z,108704
2018-09-19T12:36:28.325Z,105824
2018-09-19T12:37:38.040Z,108320
2018-09-19T12:38:47.494Z,111200
2018-09-19T12:39:57.718Z,102656
2018-09-19T12:41:07.718Z,104864
2018-09-19T12:42:17.745Z,102880
2018-09-19T12:43:27.718Z,98528
2018-09-19T12:44:37.448Z,101632
2018-09-19T12:45:47.473Z,104576
2018-09-19T12:46:57.434Z,100672
2018-09-19T12:48:07.163Z,106944
2018-09-19T12:49:17.244Z,98816
2018-09-19T12:50:26.963Z,103648
2018-09-19T12:51:36.693Z,113856
2018-09-19T12:52:46.671Z,107168
2018-09-19T12:53:56.662Z,115232
2018-09-19T12:55:06.642Z,95456
2018-09-19T12:56:16.621Z,108768
2018-09-19T12:57:26.588Z,108544
2018-09-19T12:58:36.566Z,110144
2018-09-19T12:59:46.280Z,111680
2018-09-19T13:00:56.229Z,114016
2018-09-19T13:02:06.225Z,117824
2018-09-19T13:03:16.212Z,122496
2018-09-19T13:04:25.922Z,118112
2018-09-19T13:05:35.897Z,110080
2018-09-19T13:06:45.866Z,103040
2018-09-19T13:07:55.582Z,111328
2018-09-19T13:09:05.560Z,112096
2018-09-19T13:10:15.264Z,104832
2018-09-19T13:11:25.248Z,112672
2018-09-19T13:12:35.230Z,113696
2018-09-19T13:13:44.948Z,102272
2018-09-19T13:14:54.665Z,105120
2018-09-19T13:16:04.640Z,105248
2018-09-19T13:17:14.338Z,105152
2018-09-19T13:18:24.290Z,105984
2018-09-19T13:19:34.256Z,108928
2018-09-19T13:20:44.224Z,98080
2018-09-19T13:21:54.205Z,104096
2018-09-19T13:23:03.931Z,110464
2018-09-19T13:24:13.899Z,106368
2018-09-19T13:25:23.866Z,105984
2018-09-19T13:26:33.835Z,108672
2018-09-19T13:27:43.831Z,110016
2018-09-19T13:28:53.551Z,109376
2018-09-19T13:30:03.525Z,108800
2018-09-19T13:31:13.507Z,107584
2018-09-19T13:32:23.480Z,105824
2018-09-19T13:33:33.454Z,108192
2018-09-19T13:34:43.434Z,100992
2018-09-19T13:35:53.404Z,106144
2018-09-19T13:37:03.372Z,102720
2018-09-19T13:38:13.333Z,95680
2018-09-19T13:39:23.318Z,96288
2018-09-19T13:40:33.017Z,99008
2018-09-19T13:41:42.488Z,96352
2018-09-19T13:42:52.470Z,96736
2018-09-19T13:44:02.441Z,103008
2018-09-19T13:45:12.415Z,100096
2018-09-19T13:46:22.372Z,93120
2018-09-19T13:47:32.238Z,94592
2018-09-19T13:48:42.137Z,87008
2018-09-19T13:49:51.853Z,90784
2018-09-19T13:51:01.830Z,90304
2018-09-19T13:52:11.814Z,91744
2018-09-19T13:53:21.778Z,93184
2018-09-19T13:54:31.496Z,87872
2018-09-19T13:55:41.488Z,91680
2018-09-19T13:56:51.211Z,93664
2018-09-19T13:58:00.957Z,91008
2018-09-19T13:59:11.099Z,91872
2018-09-19T14:00:21.070Z,93088
2018-09-19T14:01:31.041Z,89664
2018-09-19T14:02:41.021Z,89952
2018-09-19T14:03:50.997Z,86368
2018-09-19T14:05:00.708Z,83840
2018-09-19T14:06:10.475Z,84448
2018-09-19T14:07:20.441Z,86144
2018-09-19T14:08:30.164Z,92224
2018-09-19T14:09:39.870Z,91776
2018-09-19T14:10:49.830Z,88128
2018-09-19T14:11:59.807Z,86528
2018-09-19T14:13:09.771Z,81824
2018-09-19T14:14:19.228Z,82752
2018-09-19T14:15:28.963Z,84928
2018-09-19T14:16:38.940Z,88800
2018-09-19T14:17:48.912Z,87200
2018-09-19T14:18:58.636Z,90112
2018-09-19T14:20:08.614Z,93760
2018-09-19T14:21:18.316Z,89056
2018-09-19T14:22:28.293Z,90944
2018-09-19T14:23:38.265Z,82432
2018-09-19T14:24:47.760Z,79584
2018-09-19T14:25:57.208Z,82976
2018-09-19T14:27:07.199Z,83840
2018-09-19T14:28:17.225Z,81376
2018-09-19T14:29:27.223Z,88448
2018-09-19T14:30:37.192Z,84160
2018-09-19T14:31:47.173Z,81056
2018-09-19T14:32:57.149Z,77920
2018-09-19T14:34:07.108Z,77280
2018-09-19T14:35:17.095Z,78144
2018-09-19T14:36:27.064Z,73376
2018-09-19T14:37:37.027Z,78784
2018-09-19T14:38:47.005Z,77824
2018-09-19T14:39:56.998Z,75264
2018-09-19T14:41:06.983Z,73120
2018-09-19T14:42:16.483Z,75264
2018-09-19T14:43:26.460Z,69696
2018-09-19T14:44:36.453Z,70336
2018-09-19T14:45:46.422Z,72320
2018-09-19T14:46:56.145Z,73856
2018-09-19T14:48:05.869Z,72544
2018-09-19T14:49:15.841Z,71712
2018-09-19T14:50:25.554Z,71360
2018-09-19T14:51:35.537Z,67008
2018-09-19T14:52:45.511Z,70624
2018-09-19T14:53:55.476Z,69504
2018-09-19T14:55:05.450Z,69056
2018-09-19T14:56:15.433Z,67936
2018-09-19T14:57:25.381Z,67296
2018-09-19T14:58:35.364Z,65696
2018-09-19T14:59:45.064Z,66112
2018-09-19T15:00:55.040Z,64832
2018-09-19T15:02:05.006Z,69952
2018-09-19T15:03:14.973Z,60256
2018-09-19T15:04:24.951Z,63872
2018-09-19T15:05:34.917Z,62304
2018-09-19T15:06:44.892Z,57600
2018-09-19T15:07:55.078Z,59616
2018-09-19T15:09:04.895Z,59360
2018-09-19T15:10:14.855Z,59072
2018-09-19T15:11:24.821Z,56864
2018-09-19T15:12:34.785Z,55552
2018-09-19T15:13:44.762Z,55584
2018-09-19T15:14:54.723Z,54592
2018-09-19T15:16:04.439Z,53760
2018-09-19T15:17:14.417Z,49280
2018-09-19T15:18:24.389Z,49248
2018-09-19T15:19:34.350Z,48128
2018-09-19T15:20:44.060Z,50048
2018-09-19T15:21:54.016Z,49728
2018-09-19T15:23:03.702Z,50816
2018-09-19T15:24:13.453Z,50912
2018-09-19T15:25:23.433Z,48672
2018-09-19T15:26:33.417Z,48896
2018-09-19T15:27:43.392Z,46624
2018-09-19T15:28:53.371Z,47424
2018-09-19T15:30:03.347Z,44128
2018-09-19T15:31:13.320Z,44992
2018-09-19T15:32:23.284Z,44448
2018-09-19T15:33:32.980Z,43040
2018-09-19T15:34:42.934Z,42176